Řízení letového provozu České republiky  
Aktualizace dat:  26.05.2019 23:56:26 UTC English version
   METEO Zobrazení stránky:  26.05.2019 23:57:18 UTC  
vysvětlivky
METAR EDDB 262350Z 22007KT CAVOK 18/09 Q1007 NOSIG=
METAR EDDC 262350Z 20008KT CAVOK 15/09 Q1010=
METAR EDDE 262350Z 21009KT CAVOK 13/08 Q1010=
METAR EDDF 262350Z 19006KT CAVOK 15/09 Q1011 NOSIG=
METAR EDDM 262350Z 18002KT CAVOK 10/09 Q1013 NOSIG=
METAR EDDN 262350Z 12005KT CAVOK 13/10 Q1012=
METAR EDDP 262350Z 20011KT CAVOK 16/09 Q1009 NOSIG=
METAR EDDT 262350Z 21007KT CAVOK 18/09 Q1007=
METAR EDQM NIL
METAR EPBY 262330Z 19006KT 170V230 CAVOK 16/09 Q1008=
METAR EPGD 262330Z 22007KT 180V240 9999 FEW039 15/10 Q1006=
METAR EPKK 262330Z VRB01KT CAVOK 13/12 Q1013=
METAR EPKT 262330Z VRB02KT CAVOK 14/11 Q1012=
METAR EPLL 262330Z VRB01KT CAVOK 11/10 Q1011=
METAR EPPO 262330Z 21006KT CAVOK 15/09 Q1009=
METAR EPRZ 262330Z 19004KT CAVOK 15/12 Q1012=
METAR EPWA 262330Z 19004KT CAVOK 14/10 Q1010 NOSIG=
METAR EPWR 262330Z VRB02KT CAVOK 13/10 Q1011=
METAR LHBP 262330Z VRB02KT CAVOK 12/12 Q1013 NOSIG=
METAR LHSM 262315Z AUTO 00000KT 8000 NSC 16/15 Q1013=
METAR LKBC 270000Z AUTO 00000KT 9999 SCT056 14/11 Q1011=
METAR LKCV 262300Z VRB02KT CAVOK 15/11 Q1012 NOSIG RMK BLU BLU=
METAR LKKB 262300Z 19005KT CAVOK 13/09 Q1012 RMK BLU=
METAR LKKU NIL
METAR LKKV 262300Z 00000KT CAVOK 09/06 Q1013 RMK REG QNH 1009=
METAR LKLN 270000Z AUTO 00000KT 9999 FEW078 10/09 Q1013=
METAR LKMT 262330Z 21004KT CAVOK 14/12 Q1013 NOSIG RMK REG QNH 1009=
METAR LKNA 262300Z 19003KT CAVOK 15/11 Q1013 RMK BLU=
METAR LKPD 262300Z 00000KT CAVOK 15/11 Q1011 RMK BLU=
METAR LKPJ 262300Z AUTO 08002KT 9999 SCT078/// 13/11 Q1013=
METAR LKPR 262330Z 21007KT CAVOK 11/08 Q1012 NOSIG RMK REG QNH 1009=
METAR LKTB 262330Z 03005KT CAVOK 16/11 Q1012 NOSIG RMK REG QNH 1009=
METAR LKVO NIL
METAR LOWI 262350Z AUTO VRB01KT 9999 BKN050 13/10 Q1014=
METAR LOWL 262350Z AUTO VRB01KT 9999 FEW070 BKN080 14/11 Q1013=
METAR LOWS 262350Z AUTO 15003KT 110V170 9999 OVC100 13/11 Q1013=
METAR LOWW 262350Z 16003KT 9999 FEW060 FEW060TCU BKN110 16/14 Q1013 NOSIG=
METAR LZIB 262330Z VRB02KT CAVOK 17/14 Q1013=
METAR LZKZ 262330Z 03002KT CAVOK 14/12 Q1014=
METAR LZMC NIL
METAR LZPP 262330Z AUTO 01005KT 9999 OVC110/// 16/14 Q1013=
METAR LZSL 262330Z 00000KT CAVOK 12/10 Q1014=
METAR LZTT 262330Z 28001KT CAVOK 10/08 Q1015=
METAR LZZI 262330Z VRB01KT CAVOK 12/11 Q1014=